Time;durP1;ratioP1;P1;durP2;ratioP2;P2;SDS_P1;SDS_P2;PMS_P1;PMS_P2;Temp;Humidity;BMP_temperature;BMP_pressure;BME280_temperature;BME280_humidity;BME280_pressure;Samples;Min_cycle;Max_cycle;Signal;HPM_P1;HPM_P2
2023/05/12 00:01:19;;;;;;;9.80;4.83;;;;;;;-145.18;100.00;46707.28;4935062;29;20039;-75
2023/05/12 00:03:44;;;;;;;6.40;3.70;;;;;;;-145.18;100.00;46713.13;4939466;29;20130;-76
2023/05/12 00:06:11;;;;;;;7.83;3.60;;;;;;;-145.18;100.00;46705.31;4948672;29;20050;-76
2023/05/12 00:08:36;;;;;;;5.97;3.03;;;;;;;-145.18;100.00;46709.22;4953438;29;20074;-76
2023/05/12 00:11:02;;;;;;;4.83;3.10;;;;;;;-145.18;100.00;46715.09;4952598;29;20071;-76
2023/05/12 00:13:28;;;;;;;5.23;2.63;;;;;;;-145.18;100.00;46715.09;4953525;29;20054;-76
2023/05/12 00:15:55;;;;;;;5.47;2.63;;;;;;;-145.18;100.00;46709.22;4952794;29;20106;-76
2023/05/12 00:18:21;;;;;;;5.73;2.77;;;;;;;-145.18;100.00;46715.09;4953304;29;20054;-75
2023/05/12 00:20:47;;;;;;;5.77;2.70;;;;;;;-145.18;100.00;46717.03;4953050;29;20477;-76
2023/05/12 00:23:12;;;;;;;9.23;2.90;;;;;;;-145.18;100.00;46719.00;4953037;29;20031;-75
2023/05/12 00:25:38;;;;;;;6.20;2.80;;;;;;;-145.18;100.00;46717.03;4953095;29;20051;-75
2023/05/12 00:28:04;;;;;;;6.77;3.13;;;;;;;-145.18;100.00;46715.09;4952807;29;20114;-75
2023/05/12 00:30:29;;;;;;;8.10;2.87;;;;;;;-145.18;100.00;46715.09;4953252;29;20063;-75
2023/05/12 00:32:55;;;;;;;4.80;2.47;;;;;;;-145.18;100.00;46713.13;4952803;29;20476;-75
2023/05/12 00:35:20;;;;;;;4.57;2.17;;;;;;;-145.18;100.00;46719.00;4952770;29;20039;-75
2023/05/12 00:37:45;;;;;;;5.70;2.80;;;;;;;-145.18;100.00;46715.09;4952423;29;20452;-75
2023/05/12 00:40:11;;;;;;;5.70;3.10;;;;;;;-145.18;100.00;46711.19;4953037;29;20061;-75
2023/05/12 00:42:36;;;;;;;4.47;2.77;;;;;;;-145.18;100.00;46709.22;4952632;29;20059;-75
2023/05/12 00:45:03;;;;;;;8.53;4.30;;;;;;;-145.18;100.00;46711.19;4951649;28;20101;-75
2023/05/12 00:47:29;;;;;;;7.20;3.23;;;;;;;-145.18;100.00;46711.19;4952281;29;20055;-75
2023/05/12 00:49:55;;;;;;;8.77;3.73;;;;;;;-145.18;100.00;46707.28;4952847;29;20054;-75
2023/05/12 00:52:21;;;;;;;6.63;3.73;;;;;;;-145.18;100.00;46711.19;4951934;29;20039;-76
2023/05/12 00:54:47;;;;;;;6.23;3.83;;;;;;;-145.18;100.00;46715.09;4952558;29;20043;-76
2023/05/12 00:57:13;;;;;;;8.13;4.07;;;;;;;-145.18;100.00;46705.31;4948285;29;20122;-75
2023/05/12 00:59:38;;;;;;;12.50;4.27;;;;;;;-145.18;100.00;46707.28;4952554;29;20122;-76
2023/05/12 01:02:04;;;;;;;7.83;4.30;;;;;;;-145.18;100.00;46709.22;4946375;29;20045;-76
2023/05/12 01:04:31;;;;;;;7.93;3.77;;;;;;;-145.18;100.00;46703.38;4952106;28;20098;-76
2023/05/12 01:07:11;;;;;;;8.40;3.93;;;;;;;-145.18;100.00;46707.28;4937939;29;20028;-76
2023/05/12 01:09:37;;;;;;;9.97;3.90;;;;;;;-145.18;100.00;46703.38;4948819;29;20035;-76
2023/05/12 01:12:02;;;;;;;8.73;4.00;;;;;;;-145.18;100.00;46697.50;4937094;29;20063;-77
2023/05/12 01:14:28;;;;;;;7.83;4.67;;;;;;;-145.18;100.00;46691.66;4934293;29;20063;-77
2023/05/12 01:16:57;;;;;;;11.30;5.23;;;;;;;-145.18;100.00;46703.38;4936145;29;20515;-77
2023/05/12 01:19:28;;;;;;;10.00;4.27;;;;;;;-145.18;100.00;46689.69;4951185;29;20135;-77
2023/05/12 01:21:54;;;;;;;10.30;3.50;;;;;;;-145.18;100.00;46687.75;4945788;29;20028;-77
2023/05/12 01:24:26;;;;;;;7.80;3.83;;;;;;;-145.18;100.00;46685.78;4934062;29;20610;-76
2023/05/12 01:26:51;;;;;;;14.43;4.00;;;;;;;-145.18;100.00;46705.31;4941714;29;20034;-76
2023/05/12 01:29:17;;;;;;;7.50;3.80;;;;;;;-145.18;100.00;46689.69;4935013;29;20036;-76
2023/05/12 01:31:43;;;;;;;9.40;4.43;;;;;;;-145.18;100.00;46689.69;4934550;29;20059;-76
2023/05/12 01:34:14;;;;;;;8.67;4.07;;;;;;;-145.18;100.00;46683.84;4950071;29;20043;-76
2023/05/12 01:36:40;;;;;;;8.70;4.40;;;;;;;-145.18;100.00;46685.78;4949523;29;20058;-77
2023/05/12 01:39:05;;;;;;;8.53;4.30;;;;;;;-145.18;100.00;46689.69;4935725;29;20047;-77
2023/05/12 01:41:30;;;;;;;8.43;4.13;;;;;;;-145.18;100.00;46693.59;4941150;29;20035;-78
2023/05/12 01:43:56;;;;;;;7.50;4.20;;;;;;;-145.18;100.00;46681.88;4937840;29;20066;-77
2023/05/12 01:46:21;;;;;;;9.13;4.50;;;;;;;-145.18;100.00;46670.16;4933302;29;20024;-77
2023/05/12 01:48:46;;;;;;;7.50;4.13;;;;;;;-145.18;100.00;46676.03;4944001;29;20086;-77
2023/05/12 01:51:12;;;;;;;8.90;4.53;;;;;;;-145.18;100.00;46676.03;4946032;29;20063;-77
2023/05/12 01:53:37;;;;;;;7.40;4.30;;;;;;;-145.18;100.00;46672.13;4946336;29;20059;-76
2023/05/12 01:56:03;;;;;;;9.17;4.97;;;;;;;-145.18;100.00;46676.03;4950349;28;20039;-76
2023/05/12 01:58:28;;;;;;;9.23;4.97;;;;;;;-145.18;100.00;46679.94;4941818;29;20041;-77
2023/05/12 02:03:28;;;;;;;8.25;5.13;;;;;;;-145.18;100.00;46679.94;4211443;23;20086;-77
2023/05/12 02:05:54;;;;;;;6.70;3.93;;;;;;;-145.18;100.00;46670.16;4952266;29;20087;-77
2023/05/12 02:08:20;;;;;;;8.03;4.53;;;;;;;-145.18;100.00;46679.94;4941653;29;20042;-77
2023/05/12 02:10:45;;;;;;;8.10;4.33;;;;;;;-145.18;100.00;46674.06;4916560;29;20096;-77
2023/05/12 02:13:11;;;;;;;7.37;4.40;;;;;;;-145.18;100.00;46672.13;4932749;29;20483;-76
2023/05/12 02:15:36;;;;;;;7.87;4.33;;;;;;;-145.18;100.00;46672.13;4933319;29;20050;-77
2023/05/12 02:18:02;;;;;;;8.33;4.43;;;;;;;-145.18;100.00;46668.22;4915924;29;20101;-76
2023/05/12 02:20:28;;;;;;;7.43;4.30;;;;;;;-145.18;100.00;46672.13;4950679;29;20055;-76
2023/05/12 02:22:54;;;;;;;12.83;6.33;;;;;;;-145.18;100.00;46672.13;4951891;29;20035;-76
2023/05/12 02:25:20;;;;;;;8.60;5.57;;;;;;;-145.18;100.00;46666.25;4952500;29;20039;-76
2023/05/12 02:27:45;;;;;;;7.37;4.50;;;;;;;-145.18;100.00;46664.31;4952284;29;20047;-76
2023/05/12 02:30:11;;;;;;;9.67;5.67;;;;;;;-145.18;100.00;46664.31;4936607;29;20055;-77
2023/05/12 02:32:36;;;;;;;9.27;4.87;;;;;;;-145.18;100.00;46664.31;4933061;29;20036;-77
2023/05/12 02:35:02;;;;;;;8.40;5.00;;;;;;;-145.18;100.00;46662.34;4933039;29;20086;-76
2023/05/12 02:37:27;;;;;;;9.37;5.07;;;;;;;-145.18;100.00;46660.41;4932712;29;20116;-76
2023/05/12 02:39:53;;;;;;;8.47;5.00;;;;;;;-145.18;100.00;46662.34;4945433;29;20373;-76
2023/05/12 02:42:18;;;;;;;9.17;5.27;;;;;;;-145.18;100.00;46664.31;4952122;29;20036;-76
2023/05/12 02:44:44;;;;;;;10.20;6.07;;;;;;;-145.18;100.00;46668.22;4952376;29;20023;-76
2023/05/12 02:47:09;;;;;;;9.67;6.00;;;;;;;-145.18;100.00;46662.34;4951793;29;20043;-76
2023/05/12 02:49:35;;;;;;;11.57;7.00;;;;;;;-145.18;100.00;46660.41;4940169;29;20040;-76
2023/05/12 02:52:00;;;;;;;11.50;6.03;;;;;;;-145.18;100.00;46662.34;4939250;29;20019;-76
2023/05/12 02:54:26;;;;;;;11.13;6.83;;;;;;;-145.18;100.00;46660.41;4947638;29;20043;-77
2023/05/12 02:56:52;;;;;;;11.50;6.23;;;;;;;-145.18;100.00;46656.50;4934431;29;20067;-77
2023/05/12 02:59:17;;;;;;;10.70;5.87;;;;;;;-145.18;100.00;46664.31;4952028;29;20031;-77
2023/05/12 03:01:42;;;;;;;11.23;5.07;;;;;;;-145.18;100.00;46660.41;4951944;29;20182;-77
2023/05/12 03:04:08;;;;;;;14.50;6.10;;;;;;;-145.18;100.00;46656.50;4934360;29;20067;-77
2023/05/12 03:06:33;;;;;;;10.00;5.30;;;;;;;-145.18;100.00;46658.44;4914176;29;20032;-77
2023/05/12 03:08:58;;;;;;;8.43;4.80;;;;;;;-145.18;100.00;46664.31;4914887;29;20042;-77
2023/05/12 03:11:24;;;;;;;7.80;4.47;;;;;;;-145.18;100.00;46658.44;4917544;29;20548;-77
2023/05/12 03:13:50;;;;;;;9.40;4.53;;;;;;;-145.18;100.00;46660.41;4916878;29;20032;-78
2023/05/12 03:16:16;;;;;;;9.33;5.20;;;;;;;-145.18;100.00;46656.50;4946765;29;20102;-77
2023/05/12 03:18:42;;;;;;;7.83;4.57;;;;;;;-145.18;100.00;46660.41;4955390;29;20114;-77
2023/05/12 03:21:07;;;;;;;11.03;5.80;;;;;;;-145.18;100.00;46660.41;4955362;29;20127;-77
2023/05/12 03:23:33;;;;;;;9.57;4.83;;;;;;;-145.18;100.00;46658.44;4955295;29;20074;-76
2023/05/12 03:25:59;;;;;;;8.60;4.17;;;;;;;-145.18;100.00;46656.50;4942846;29;20072;-77
2023/05/12 03:28:25;;;;;;;9.27;4.50;;;;;;;-145.18;100.00;46656.50;4936033;29;20067;-76
2023/05/12 03:30:50;;;;;;;8.43;4.27;;;;;;;-145.18;100.00;46658.44;4936133;29;20055;-77
2023/05/12 03:33:15;;;;;;;6.83;4.20;;;;;;;-145.18;100.00;46652.59;4935954;29;20544;-76
2023/05/12 03:35:41;;;;;;;7.10;4.07;;;;;;;-145.18;100.00;46658.44;4935858;29;20039;-76
2023/05/12 03:38:06;;;;;;;11.30;4.63;;;;;;;-145.18;100.00;46662.34;4935417;29;20155;-77
2023/05/12 03:40:32;;;;;;;7.87;4.20;;;;;;;-145.18;100.00;46656.50;4936138;29;20031;-76
2023/05/12 03:42:57;;;;;;;9.30;4.63;;;;;;;-145.18;100.00;46656.50;4918548;29;20562;-76
2023/05/12 03:45:23;;;;;;;9.07;5.07;;;;;;;-145.18;100.00;46660.41;4944676;29;20503;-77
2023/05/12 03:47:48;;;;;;;10.33;4.87;;;;;;;-145.18;100.00;46656.50;4954490;29;20503;-77
2023/05/12 03:50:14;;;;;;;9.37;5.37;;;;;;;-145.18;100.00;46656.50;4954838;29;20036;-77
2023/05/12 03:52:40;;;;;;;10.33;4.63;;;;;;;-145.18;100.00;46662.34;4954783;29;20065;-77
2023/05/12 03:55:06;;;;;;;11.17;5.27;;;;;;;-145.18;100.00;46654.53;4945652;29;20036;-77
2023/05/12 03:57:31;;;;;;;8.33;4.73;;;;;;;-145.18;100.00;46660.41;4935449;29;20041;-78
2023/05/12 03:59:57;;;;;;;10.60;5.63;;;;;;;-145.18;100.00;46654.53;4935370;29;20024;-76
2023/05/12 04:02:22;;;;;;;10.57;5.30;;;;;;;-145.18;100.00;46660.41;4935304;29;20047;-76
2023/05/12 04:04:47;;;;;;;11.00;5.67;;;;;;;-145.18;100.00;46656.50;4941641;29;20500;-76
2023/05/12 04:07:13;;;;;;;10.87;4.83;;;;;;;-145.18;100.00;46656.50;4954346;29;20073;-76
2023/05/12 04:09:38;;;;;;;10.33;5.10;;;;;;;-145.18;100.00;46652.59;4954702;29;20031;-75
2023/05/12 04:12:04;;;;;;;9.57;5.30;;;;;;;-145.18;100.00;46658.44;4954135;29;20059;-76
2023/05/12 04:14:30;;;;;;;10.07;5.03;;;;;;;-145.18;100.00;46660.41;4950521;29;20116;-76
2023/05/12 04:16:57;;;;;;;10.43;5.73;;;;;;;-145.18;100.00;46658.44;4926506;29;20044;-77
2023/05/12 04:19:22;;;;;;;7.73;4.80;;;;;;;-145.18;100.00;46654.53;4924721;29;20067;-76
2023/05/12 04:21:48;;;;;;;9.03;5.00;;;;;;;-145.18;100.00;46656.50;4925022;29;20723;-76
2023/05/12 04:24:13;;;;;;;11.80;5.77;;;;;;;-145.18;100.00;46656.50;4926325;29;20493;-77
2023/05/12 04:26:38;;;;;;;10.43;5.37;;;;;;;-145.18;100.00;46654.53;4922644;29;20527;-76
2023/05/12 04:29:04;;;;;;;16.30;5.87;;;;;;;-145.18;100.00;46652.59;4915673;29;20036;-76
2023/05/12 04:31:29;;;;;;;13.23;6.33;;;;;;;-145.18;100.00;46658.44;4928197;29;20035;-76
2023/05/12 04:33:54;;;;;;;16.13;6.57;;;;;;;-145.18;100.00;46660.41;4925250;29;20044;-76
2023/05/12 04:36:20;;;;;;;17.30;6.87;;;;;;;-145.18;100.00;46652.59;4924257;29;20043;-76
2023/05/12 04:38:45;;;;;;;20.07;9.00;;;;;;;-145.18;100.00;46654.53;4924779;29;20486;-76
2023/05/12 04:41:11;;;;;;;17.23;7.60;;;;;;;-145.18;100.00;46656.50;4923239;29;20628;-76
2023/05/12 04:43:36;;;;;;;18.73;7.70;;;;;;;-145.18;100.00;46654.53;4925694;29;20040;-76
2023/05/12 04:46:02;;;;;;;20.97;9.30;;;;;;;-145.18;100.00;46658.44;4923007;29;20071;-76
2023/05/12 04:48:30;;;;;;;26.33;9.60;;;;;;;-145.18;100.00;46658.44;4925062;29;20028;-77
2023/05/12 04:50:58;;;;;;;23.97;10.20;;;;;;;-145.18;100.00;46658.44;4918394;29;20413;-77
2023/05/12 04:53:24;;;;;;;26.97;10.50;;;;;;;-145.18;100.00;46656.50;4915565;29;20036;-77
2023/05/12 04:55:50;;;;;;;23.83;10.50;;;;;;;-145.18;100.00;46656.50;4945117;29;20054;-75
2023/05/12 04:58:15;;;;;;;25.90;11.20;;;;;;;-145.18;100.00;46660.41;4953586;29;20055;-76
2023/05/12 05:00:41;;;;;;;27.17;11.57;;;;;;;-145.18;100.00;46656.50;4930227;29;20476;-77
2023/05/12 05:03:06;;;;;;;28.13;10.53;;;;;;;-145.18;100.00;46656.50;4915636;29;20089;-76
2023/05/12 05:05:32;;;;;;;27.53;10.30;;;;;;;-145.18;100.00;46662.34;4940094;29;20070;-77
2023/05/12 05:07:57;;;;;;;27.10;11.07;;;;;;;-145.18;100.00;46654.53;4953230;29;20122;-76
2023/05/12 05:10:23;;;;;;;25.03;10.57;;;;;;;-145.18;100.00;46662.34;4953627;29;20121;-76
2023/05/12 05:12:48;;;;;;;27.77;11.70;;;;;;;-145.18;100.00;46658.44;4953134;29;20066;-76
2023/05/12 05:15:13;;;;;;;26.50;11.30;;;;;;;-145.18;100.00;46660.41;4943322;29;20486;-76
2023/05/12 05:17:39;;;;;;;30.63;12.47;;;;;;;-145.18;100.00;46656.50;4933999;29;20052;-75
2023/05/12 05:20:06;;;;;;;31.83;13.17;;;;;;;-145.18;100.00;46660.41;4933595;29;20390;-76
2023/05/12 05:22:31;;;;;;;35.60;13.53;;;;;;;-145.18;100.00;46656.50;4933817;29;20469;-76
2023/05/12 05:24:56;;;;;;;36.40;13.60;;;;;;;-145.18;100.00;46662.34;4940719;29;20074;-76
2023/05/12 05:27:22;;;;;;;34.97;13.30;;;;;;;-145.18;100.00;46660.41;4953204;29;20043;-76
2023/05/12 05:29:48;;;;;;;33.23;13.23;;;;;;;-145.18;100.00;46660.41;4952818;29;20547;-76
2023/05/12 05:32:13;;;;;;;42.77;14.43;;;;;;;-145.18;100.00;46658.44;4952414;28;20042;-76
2023/05/12 05:34:39;;;;;;;36.23;14.43;;;;;;;-145.18;100.00;46656.50;4946615;29;20404;-76
2023/05/12 05:37:04;;;;;;;37.40;13.93;;;;;;;-145.18;100.00;46662.34;4916651;29;20544;-76
2023/05/12 05:39:30;;;;;;;39.03;14.07;;;;;;;-145.18;100.00;46660.41;4926131;29;20573;-76
2023/05/12 05:41:56;;;;;;;35.23;14.33;;;;;;;-145.18;100.00;46662.34;4927136;29;20035;-76
2023/05/12 05:44:23;;;;;;;37.97;15.80;;;;;;;-145.18;100.00;46660.41;4931453;29;20586;-76
2023/05/12 05:46:49;;;;;;;37.50;15.63;;;;;;;-145.18;100.00;46664.31;4940950;29;20466;-76
2023/05/12 05:49:15;;;;;;;36.37;14.67;;;;;;;-145.18;100.00;46658.44;4943468;29;20113;-76
2023/05/12 05:51:40;;;;;;;36.83;14.73;;;;;;;-145.18;100.00;46662.34;4934228;29;20044;-76
2023/05/12 05:54:05;;;;;;;39.40;14.70;;;;;;;-145.18;100.00;46666.25;4921664;29;20078;-77
2023/05/12 05:56:32;;;;;;;36.53;14.57;;;;;;;-145.18;100.00;46662.34;4940356;29;20078;-76
2023/05/12 05:59:01;;;;;;;40.37;16.17;;;;;;;-145.18;100.00;46656.50;4939319;29;20047;-77
2023/05/12 06:01:26;;;;;;;34.60;14.03;;;;;;;-145.18;100.00;46666.25;4939084;29;20051;-77
2023/05/12 06:03:52;;;;;;;35.57;14.67;;;;;;;-145.18;100.00;46660.41;4935799;29;20075;-77
2023/05/12 06:06:17;;;;;;;36.87;14.73;;;;;;;-145.18;100.00;46664.31;4932366;29;20078;-77
2023/05/12 06:08:42;;;;;;;42.87;16.47;;;;;;;-145.18;100.00;46664.31;4934763;29;20068;-77
2023/05/12 06:11:08;;;;;;;37.20;15.03;;;;;;;-145.18;100.00;46662.34;4943181;29;20046;-77
2023/05/12 06:13:33;;;;;;;46.70;16.40;;;;;;;-145.18;100.00;46658.44;4945200;29;20198;-77
2023/05/12 06:15:59;;;;;;;42.90;15.50;;;;;;;-145.18;100.00;46664.31;4936186;29;20121;-77
2023/05/12 06:18:24;;;;;;;40.20;17.30;;;;;;;-145.18;100.00;46664.31;4932547;29;20055;-77
2023/05/12 06:20:49;;;;;;;37.20;16.60;;;;;;;-145.18;100.00;46670.16;4949992;29;20145;-76
2023/05/12 06:23:15;;;;;;;42.07;18.33;;;;;;;-145.18;100.00;46670.16;4941713;29;20042;-77
2023/05/12 06:25:40;;;;;;;44.17;18.20;;;;;;;-145.18;100.00;46660.41;4918470;29;20123;-77
2023/05/12 06:28:05;;;;;;;41.47;17.90;;;;;;;-145.18;100.00;46662.34;4913840;29;20406;-76
2023/05/12 06:30:32;;;;;;;46.83;19.13;;;;;;;-145.18;100.00;46658.44;4947802;29;20039;-76
2023/05/12 06:32:58;;;;;;;45.43;21.40;;;;;;;-145.18;100.00;46670.16;4950255;29;20032;-76
2023/05/12 06:35:23;;;;;;;47.43;20.73;;;;;;;-145.18;100.00;46674.06;4951783;29;20098;-76
2023/05/12 06:37:49;;;;;;;41.07;19.03;;;;;;;-145.18;100.00;46662.34;4951869;29;20412;-75
2023/05/12 06:40:15;;;;;;;37.97;17.77;;;;;;;-145.18;100.00;46668.22;4934382;29;20473;-76
2023/05/12 06:42:41;;;;;;;38.93;17.67;;;;;;;-145.18;100.00;46670.16;4942298;28;20063;-76
2023/05/12 06:45:07;;;;;;;44.03;19.33;;;;;;;-145.18;100.00;46668.22;4955865;29;20465;-76
2023/05/12 06:47:33;;;;;;;40.33;17.20;;;;;;;-145.18;100.00;46670.16;4955730;29;20114;-76
2023/05/12 06:49:58;;;;;;;35.80;17.60;;;;;;;-145.18;100.00;46666.25;4955476;29;20110;-76
2023/05/12 06:52:23;;;;;;;37.33;17.33;;;;;;;-145.18;100.00;46670.16;4956021;29;20039;-76
2023/05/12 06:54:49;;;;;;;36.90;17.60;;;;;;;-145.18;100.00;46674.06;4944961;29;20078;-76
2023/05/12 06:57:15;;;;;;;39.33;18.00;;;;;;;-145.18;100.00;46674.06;4945778;29;20457;-76
2023/05/12 06:59:40;;;;;;;38.30;18.07;;;;;;;-145.18;100.00;46676.03;4955804;29;20027;-77
2023/05/12 07:02:05;;;;;;;37.27;16.77;;;;;;;-145.18;100.00;46672.13;4955192;29;20122;-76
2023/05/12 07:04:31;;;;;;;41.57;16.43;;;;;;;-145.18;100.00;46679.94;4944657;29;20044;-76
2023/05/12 07:06:56;;;;;;;37.77;17.87;;;;;;;-145.18;100.00;46677.97;4948998;29;20031;-76
2023/05/12 07:09:22;;;;;;;35.50;17.07;;;;;;;-145.18;100.00;46679.94;4955185;29;20042;-76
2023/05/12 07:11:47;;;;;;;35.53;16.50;;;;;;;-145.18;100.00;46676.03;4955244;29;20087;-76
2023/05/12 07:14:13;;;;;;;32.40;16.60;;;;;;;-145.18;100.00;46681.88;4954675;29;20031;-77
2023/05/12 07:16:38;;;;;;;32.03;15.77;;;;;;;-145.18;100.00;46679.94;4955620;29;20024;-76
2023/05/12 07:19:05;;;;;;;38.20;18.37;;;;;;;-145.18;100.00;46681.88;4947426;29;20106;-76
2023/05/12 07:21:30;;;;;;;32.23;16.07;;;;;;;-145.18;100.00;46685.78;4918449;29;20624;-76
2023/05/12 07:23:56;;;;;;;41.37;17.53;;;;;;;-145.18;100.00;46681.88;4949126;29;20042;-77
2023/05/12 07:26:23;;;;;;;36.27;18.00;;;;;;;-145.18;100.00;46685.78;4942904;29;20591;-77
2023/05/12 07:28:48;;;;;;;34.17;16.47;;;;;;;-145.18;100.00;46687.75;4935809;29;20119;-77
2023/05/12 07:31:14;;;;;;;29.20;15.73;;;;;;;-145.18;100.00;46687.75;4935023;29;20091;-77
2023/05/12 07:33:39;;;;;;;36.43;16.43;;;;;;;-145.18;100.00;46683.84;4935362;29;20485;-77
2023/05/12 07:36:07;;;;;;;36.03;18.43;;;;;;;-145.18;100.00;46687.75;4927490;29;20075;-77
2023/05/12 07:38:32;;;;;;;34.30;17.00;;;;;;;-145.18;100.00;46683.84;4922771;29;20032;-77
2023/05/12 07:40:59;;;;;;;31.00;16.93;;;;;;;-145.18;100.00;46689.69;4924292;29;20042;-78
2023/05/12 07:43:25;;;;;;;35.20;17.63;;;;;;;-145.18;100.00;46691.66;4932978;29;20420;-77
2023/05/12 07:45:50;;;;;;;27.30;15.53;;;;;;;-145.18;100.00;46689.69;4920758;29;20036;-78
2023/05/12 07:48:16;;;;;;;29.50;16.30;;;;;;;-145.18;100.00;46693.59;4911927;29;20028;-77
2023/05/12 07:50:41;;;;;;;27.10;15.43;;;;;;;-145.18;100.00;46695.56;4920024;29;20032;-77
2023/05/12 07:53:06;;;;;;;28.13;16.33;;;;;;;-145.18;100.00;46695.56;4921912;29;20040;-77
2023/05/12 07:55:32;;;;;;;26.90;15.93;;;;;;;-145.18;100.00;46695.56;4913620;29;20039;-77
2023/05/12 07:57:58;;;;;;;28.77;16.30;;;;;;;-145.18;100.00;46699.47;4934716;29;20409;-77
2023/05/12 08:00:24;;;;;;;29.53;16.67;;;;;;;-145.18;100.00;46695.56;4935412;29;20477;-78
2023/05/12 08:02:49;;;;;;;26.97;15.47;;;;;;;-145.18;100.00;46699.47;4935887;29;20066;-77
2023/05/12 08:05:15;;;;;;;27.87;15.80;;;;;;;-145.18;100.00;46699.47;4926395;29;20040;-78
2023/05/12 08:07:42;;;;;;;24.50;14.83;;;;;;;-145.18;100.00;46703.38;4927563;29;20027;-78
2023/05/12 08:10:10;;;;;;;22.73;14.07;;;;;;;-145.18;100.00;46699.47;4927116;29;20043;-77
2023/05/12 08:12:35;;;;;;;24.40;14.40;;;;;;;-145.18;100.00;46703.38;4926572;29;20031;-78
2023/05/12 08:15:01;;;;;;;21.63;13.23;;;;;;;-145.18;100.00;46703.38;4934961;29;20040;-78
2023/05/12 08:17:26;;;;;;;19.87;12.87;;;;;;;-145.18;100.00;46705.31;4935174;29;20032;-78
2023/05/12 08:19:52;;;;;;;20.43;11.37;;;;;;;-145.18;100.00;46707.28;4943505;29;20043;-78
2023/05/12 08:22:17;;;;;;;19.17;10.67;;;;;;;-145.18;100.00;46701.41;4936020;29;20028;-78
2023/05/12 08:24:42;;;;;;;17.93;10.07;;;;;;;-145.18;100.00;46691.66;4934485;29;20869;-78
2023/05/12 08:27:08;;;;;;;16.03;10.63;;;;;;;-145.18;100.00;46656.50;4934730;29;20095;-78
2023/05/12 08:29:33;;;;;;;16.43;10.40;;;;;;;-145.18;100.00;46666.25;4934428;29;20055;-78
2023/05/12 08:31:59;;;;;;;17.00;10.77;;;;;;;-145.18;100.00;46672.13;4934631;29;20411;-79
2023/05/12 08:34:24;;;;;;;13.97;10.33;;;;;;;-145.18;100.00;46658.44;4942269;29;20043;-78
2023/05/12 08:36:53;;;;;;;19.03;10.20;;;;;;;-145.18;100.00;46638.91;4952514;29;20035;-78
2023/05/12 08:39:19;;;;;;;15.10;9.30;;;;;;;-145.18;100.00;46615.47;4934296;29;20043;-78
2023/05/12 08:41:51;;;;;;;14.20;9.07;;;;;;;-145.18;100.00;46617.41;4951250;29;20041;-78
2023/05/12 08:44:18;;;;;;;15.60;9.53;;;;;;;-145.18;100.00;46588.13;4946366;29;20071;-78
2023/05/12 08:46:46;;;;;;;14.67;9.90;;;;;;;-145.18;100.00;46588.13;4953786;29;20485;-78
2023/05/12 08:49:15;;;;;;;12.00;8.17;;;;;;;-145.18;100.00;46586.16;4934336;29;20047;-77
2023/05/12 08:51:43;;;;;;;11.33;8.57;;;;;;;-145.18;100.00;46592.03;4934832;29;20465;-78
2023/05/12 08:54:11;;;;;;;13.23;8.50;;;;;;;-145.18;100.00;46590.06;4951281;29;20035;-78
2023/05/12 08:56:37;;;;;;;14.70;8.43;;;;;;;-145.18;100.00;46595.94;4953670;29;20094;-79
2023/05/12 08:59:05;;;;;;;15.17;9.23;;;;;;;-145.18;100.00;46603.75;4935389;29;20408;-77
2023/05/12 09:01:33;;;;;;;13.57;8.03;;;;;;;-145.18;100.00;46609.59;4934333;29;20036;-79
2023/05/12 09:03:59;;;;;;;13.17;7.93;;;;;;;-145.18;100.00;46607.66;4933162;29;20063;-78
2023/05/12 09:06:24;;;;;;;13.80;7.97;;;;;;;-145.18;100.00;46619.38;4933527;29;20050;-78
2023/05/12 09:08:50;;;;;;;11.43;7.83;;;;;;;-145.18;100.00;46603.75;4933440;29;20122;-77
2023/05/12 09:11:17;;;;;;;15.70;8.70;;;;;;;-145.18;100.00;46617.41;4934142;29;20049;-77
2023/05/12 09:14:01;;;;;;;11.40;8.00;;;;;;;-145.18;100.00;46613.50;4933843;29;20500;-78
2023/05/12 09:16:38;;;;;;;13.50;8.27;;;;;;;-145.18;100.00;46603.75;4933705;29;20047;-78
2023/05/12 09:19:03;;;;;;;12.23;7.17;;;;;;;-145.18;100.00;46611.56;4933660;29;20171;-78
2023/05/12 09:21:29;;;;;;;8.57;6.57;;;;;;;-145.18;100.00;46619.38;4933835;29;20540;-78
2023/05/12 09:23:54;;;;;;;11.87;7.33;;;;;;;-145.18;100.00;46621.31;4932368;29;20035;-78
2023/05/12 09:26:23;;;;;;;10.57;6.67;;;;;;;-145.18;100.00;46631.09;4933954;29;20039;-78
2023/05/12 09:28:50;;;;;;;10.53;6.40;;;;;;;-145.18;100.00;46617.41;4910273;29;20751;-77
2023/05/12 09:31:21;;;;;;;9.03;6.57;;;;;;;-145.18;100.00;46648.69;4918827;29;20036;-78
2023/05/12 09:33:48;;;;;;;9.93;5.90;;;;;;;-145.18;100.00;46676.03;4927376;29;20043;-78
2023/05/12 09:36:18;;;;;;;8.93;5.33;;;;;;;-145.18;100.00;46670.16;4909110;29;20481;-79
2023/05/12 09:38:43;;;;;;;10.37;6.30;;;;;;;-145.18;100.00;46685.78;4932851;29;20401;-78
2023/05/12 09:41:09;;;;;;;8.33;5.97;;;;;;;-145.18;100.00;46664.31;4927402;29;20044;-78
2023/05/12 09:43:34;;;;;;;9.37;5.63;;;;;;;-145.18;100.00;46689.69;4919783;29;20473;-78
2023/05/12 09:46:05;;;;;;;6.67;4.83;;;;;;;-145.18;100.00;46683.84;4920092;29;20119;-77
2023/05/12 09:48:32;;;;;;;5.60;4.60;;;;;;;-145.18;100.00;46699.47;4924393;29;20040;-78
2023/05/12 09:50:57;;;;;;;5.73;4.30;;;;;;;-145.18;100.00;46703.38;4917504;29;20036;-77
2023/05/12 09:53:23;;;;;;;5.07;3.80;;;;;;;-145.18;100.00;46705.31;4922900;29;20032;-77
2023/05/12 09:55:49;;;;;;;5.27;3.83;;;;;;;-145.18;100.00;46695.56;4925944;29;20052;-77
2023/05/12 09:58:16;;;;;;;7.90;3.77;;;;;;;-145.18;100.00;46693.59;4932852;29;20040;-77
2023/05/12 10:00:42;;;;;;;5.60;3.40;;;;;;;-145.18;100.00;46738.53;4932896;29;20039;-77
2023/05/12 10:03:14;;;;;;;5.53;3.53;;;;;;;-145.18;100.00;46750.25;4932736;29;20171;-78
2023/05/12 10:06:01;;;;;;;5.70;4.07;;;;;;;-145.18;100.00;46728.75;4933455;29;20062;-76
2023/05/12 10:08:36;;;;;;;6.80;3.57;;;;;;;-145.18;100.00;46736.56;4933185;29;20377;-76
2023/05/12 10:11:04;;;;;;;6.00;3.00;;;;;;;-145.18;100.00;46738.53;4933223;29;20496;-76
2023/05/12 10:13:31;;;;;;;4.03;3.40;;;;;;;-145.18;100.00;46814.72;4926212;29;20032;-77
2023/05/12 10:15:57;;;;;;;4.47;3.43;;;;;;;-145.18;100.00;46787.38;4925012;29;20031;-76
2023/05/12 10:18:23;;;;;;;5.23;4.03;;;;;;;-145.18;100.00;46801.03;4923498;29;20032;-76
2023/05/12 10:20:50;;;;;;;6.63;4.37;;;;;;;-145.18;100.00;46773.69;4925260;29;20088;-76
2023/05/12 10:23:17;;;;;;;6.60;4.67;;;;;;;-145.18;100.00;46752.19;4925379;29;20034;-76
2023/05/12 10:25:43;;;;;;;6.40;4.90;;;;;;;-145.18;100.00;46720.94;4931755;29;20028;-76
2023/05/12 10:28:09;;;;;;;7.03;5.60;;;;;;;-145.18;100.00;46816.66;4932621;29;20095;-76
2023/05/12 10:30:37;;;;;;;6.03;5.13;;;;;;;-145.18;100.00;47307.00;4929743;29;20455;-75
2023/05/12 10:33:02;;;;;;;4.57;3.77;;;;;;;-145.18;100.00;47299.19;4938456;29;20020;-75
2023/05/12 10:35:35;;;;;;;6.30;4.13;;;;;;;-145.18;100.00;47295.28;4932878;29;20043;-75
2023/05/12 10:38:05;;;;;;;5.63;4.37;;;;;;;-145.18;100.00;47316.78;4932642;29;20473;-76
2023/05/12 10:40:31;;;;;;;7.07;4.27;;;;;;;-145.18;100.00;47262.06;4931579;29;20031;-75
2023/05/12 10:42:59;;;;;;;7.37;4.00;;;;;;;-145.18;100.00;47303.09;4932192;29;20042;-75
2023/05/12 10:45:25;;;;;;;5.33;4.00;;;;;;;-145.18;100.00;47275.75;4948430;29;20066;-75
2023/05/12 10:47:50;;;;;;;4.80;3.43;;;;;;;-145.18;100.00;47223.00;4915633;29;20048;-75
2023/05/12 10:50:26;;;;;;;4.77;2.90;;;;;;;-145.18;100.00;47187.84;4919145;29;20114;-75
2023/05/12 10:52:55;;;;;;;5.25;2.95;;;;;;;-145.18;100.00;47183.94;4924083;29;20031;-75
2023/05/12 10:55:40;;;;;;;3.03;2.67;;;;;;;-145.18;100.00;47168.28;4922359;29;20051;-75
2023/05/12 10:58:10;;;;;;;4.90;2.20;;;;;;;-145.18;100.00;47174.16;4926720;29;20110;-75
2023/05/12 11:00:48;;;;;;;2.77;2.43;;;;;;;-145.18;100.00;47168.28;4916906;29;20115;-75